Time;durP1;ratioP1;P1;durP2;ratioP2;P2;SDS_P1;SDS_P2;PMS_P1;PMS_P2;Temp;Humidity;BMP_temperature;BMP_pressure;BME280_temperature;BME280_humidity;BME280_pressure;Samples;Min_cycle;Max_cycle;Signal;HPM_P1;HPM_P2
2022/09/17 00:01:05;;;;;;;2.87;1.67;;;;;;;11.51;77.67;95597.42;1763222;81;20932;-91
2022/09/17 00:03:36;;;;;;;1.87;1.50;;;;;;;11.50;77.96;95601.83;1775290;81;20991;-91
2022/09/17 00:06:04;;;;;;;2.37;1.52;;;;;;;11.49;77.98;95598.13;1776068;81;21055;-91
2022/09/17 00:08:30;;;;;;;2.15;1.55;;;;;;;11.48;78.46;95592.13;1755016;81;20986;-91
2022/09/17 00:10:56;;;;;;;1.90;1.60;;;;;;;11.43;78.55;95583.66;1761830;81;21420;-91
2022/09/17 00:13:23;;;;;;;3.72;1.70;;;;;;;11.42;78.84;95582.56;1765912;81;21006;-91
2022/09/17 00:15:51;;;;;;;1.62;1.50;;;;;;;11.40;78.78;95588.48;1734074;83;20985;-91
2022/09/17 00:18:16;;;;;;;2.87;1.47;;;;;;;11.38;78.97;95592.55;1761758;81;20932;-91
2022/09/17 00:20:44;;;;;;;3.00;1.77;;;;;;;11.39;79.80;95599.38;1769317;81;20940;-91
2022/09/17 00:23:11;;;;;;;3.85;2.00;;;;;;;11.37;79.76;95600.56;1776137;81;21050;-91
2022/09/17 00:25:38;;;;;;;1.90;1.70;;;;;;;11.35;79.79;95597.38;1776808;81;21121;-91
2022/09/17 00:28:04;;;;;;;2.70;1.95;;;;;;;11.36;79.84;95595.07;1776551;81;20962;-91
2022/09/17 00:30:30;;;;;;;2.47;2.00;;;;;;;11.34;80.31;95597.88;1776522;81;21051;-91
2022/09/17 00:32:57;;;;;;;2.20;1.90;;;;;;;11.33;80.32;95600.69;1777157;81;20944;-91
2022/09/17 00:35:24;;;;;;;2.87;2.02;;;;;;;11.28;80.20;95593.51;1776603;81;20951;-91
2022/09/17 00:37:50;;;;;;;3.47;1.70;;;;;;;11.29;80.33;95589.91;1759418;81;21352;-91
2022/09/17 00:40:17;;;;;;;3.25;2.08;;;;;;;11.25;80.36;95587.42;1776372;81;20963;-91
2022/09/17 00:42:44;;;;;;;2.37;1.80;;;;;;;11.25;80.40;95586.63;1768693;81;21039;-91
2022/09/17 00:45:10;;;;;;;2.33;2.12;;;;;;;11.26;80.37;95586.41;1751254;81;21304;-91
2022/09/17 00:47:40;;;;;;;3.22;2.27;;;;;;;11.27;80.29;95578.91;1751475;81;20963;-90
2022/09/17 00:50:14;;;;;;;3.55;2.00;;;;;;;11.28;80.54;95581.01;1754079;81;21005;-90
2022/09/17 00:52:47;;;;;;;2.40;1.87;;;;;;;11.26;80.76;95579.92;1739366;81;20969;-91
2022/09/17 00:55:24;;;;;;;3.65;2.05;;;;;;;11.26;81.13;95579.12;1752861;81;21368;-90
2022/09/17 00:57:51;;;;;;;3.45;1.70;;;;;;;11.25;81.17;95575.72;1760130;81;21035;-90
2022/09/17 01:00:17;;;;;;;2.77;1.80;;;;;;;11.23;81.59;95573.83;1753342;81;20910;-89
2022/09/17 01:02:43;;;;;;;3.75;1.95;;;;;;;11.24;81.94;95578.53;1737505;81;20985;-91
2022/09/17 01:05:09;;;;;;;3.37;2.08;;;;;;;11.23;81.88;95575.63;1764546;81;21047;-90
2022/09/17 01:07:52;;;;;;;2.67;2.00;;;;;;;11.18;81.42;95574.13;1746217;81;21330;-91
2022/09/17 01:10:55;;;;;;;2.40;1.52;;;;;;;11.18;81.15;95568.42;1764897;81;20940;-91
2022/09/17 01:13:26;;;;;;;2.80;1.80;;;;;;;11.19;81.18;95568.72;1765560;81;20995;-91
2022/09/17 01:16:20;;;;;;;2.02;1.62;;;;;;;11.17;81.21;95568.63;1765232;81;21248;-90
2022/09/17 01:19:10;;;;;;;2.47;2.10;;;;;;;11.15;80.95;95575.34;1745798;81;21020;-90
2022/09/17 01:21:47;;;;;;;2.70;1.90;;;;;;;11.13;80.91;95574.75;1766907;81;20943;-90
2022/09/17 01:24:28;;;;;;;2.55;1.87;;;;;;;11.12;80.93;95574.45;1764116;81;20959;-90
2022/09/17 01:27:08;;;;;;;4.42;2.25;;;;;;;11.13;81.00;95574.75;1761818;81;20952;-90
2022/09/17 01:30:23;;;;;;;2.62;2.30;;;;;;;11.11;80.85;95584.56;1762452;81;21008;-91
2022/09/17 01:32:58;;;;;;;2.55;1.87;;;;;;;11.08;80.79;95584.47;1766859;81;21330;-91
2022/09/17 01:35:32;;;;;;;5.47;1.82;;;;;;;11.05;80.80;95585.36;1765055;81;20959;-91
2022/09/17 01:38:26;;;;;;;2.45;1.70;;;;;;;11.02;80.70;95587.06;1750774;81;21369;-91
2022/09/17 01:41:10;;;;;;;2.75;1.92;;;;;;;11.00;80.83;95588.58;1761666;81;21461;-91
2022/09/17 01:43:56;;;;;;;2.87;1.87;;;;;;;10.96;80.73;95594.39;1763228;81;20952;-90
2022/09/17 01:46:39;;;;;;;3.33;2.20;;;;;;;10.92;80.92;95596.60;1766195;81;21031;-90
2022/09/17 01:49:05;;;;;;;3.00;1.70;;;;;;;10.93;81.93;95599.50;1764880;81;20975;-90
2022/09/17 01:51:44;;;;;;;3.95;1.82;;;;;;;10.93;81.44;95592.20;1764069;81;20983;-91
2022/09/17 01:54:30;;;;;;;2.80;1.90;;;;;;;10.94;81.32;95597.70;1764917;81;20999;-90
2022/09/17 01:57:01;;;;;;;3.45;1.90;;;;;;;10.94;81.10;95586.00;1751792;81;21014;-90
2022/09/17 01:59:37;;;;;;;1.95;1.77;;;;;;;10.95;81.14;95581.09;1764538;80;20975;-91
2022/09/17 02:02:24;;;;;;;2.08;1.60;;;;;;;10.97;81.00;95577.79;1748599;82;20988;-92
2022/09/17 02:04:58;;;;;;;4.25;2.10;;;;;;;10.98;80.91;95580.69;1728539;82;21099;-92
2022/09/17 02:07:24;;;;;;;3.10;1.85;;;;;;;10.99;80.90;95581.78;1749424;82;21008;-92
2022/09/17 02:10:05;;;;;;;2.52;1.87;;;;;;;11.00;81.05;95582.08;1745786;82;20965;-91
2022/09/17 02:12:35;;;;;;;2.05;1.60;;;;;;;11.03;80.94;95585.56;1744769;82;21409;-91
2022/09/17 02:15:04;;;;;;;4.00;2.05;;;;;;;11.02;80.79;95591.77;1750762;82;20976;-90
2022/09/17 02:17:48;;;;;;;1.98;1.57;;;;;;;11.03;80.62;95593.86;1723921;82;21016;-91
2022/09/17 02:20:14;;;;;;;1.40;1.20;;;;;;;11.04;80.56;95598.05;1752318;82;20948;-91
2022/09/17 02:22:45;;;;;;;2.40;2.00;;;;;;;11.04;80.43;95599.36;1726991;82;21032;-91
2022/09/17 02:25:24;;;;;;;2.17;1.52;;;;;;;11.03;80.35;95605.56;1744645;82;21376;-91
2022/09/17 02:28:24;;;;;;;2.33;1.60;;;;;;;10.99;79.89;95599.17;1737100;82;21047;-90
2022/09/17 02:30:50;;;;;;;3.25;1.50;;;;;;;10.97;79.92;95603.78;1732031;82;20917;-91
2022/09/17 02:33:16;;;;;;;1.87;1.35;;;;;;;10.96;79.77;95605.58;1741936;82;21387;-91
2022/09/17 02:35:43;;;;;;;2.20;1.90;;;;;;;10.92;79.69;95608.80;1748018;82;20948;-91
2022/09/17 02:38:09;;;;;;;2.15;1.67;;;;;;;10.91;79.36;95606.70;1725823;83;21358;-91
2022/09/17 02:40:42;;;;;;;4.08;1.77;;;;;;;10.89;79.48;95597.48;1749769;82;20983;-91
2022/09/17 02:43:30;;;;;;;1.57;1.47;;;;;;;10.87;79.46;95598.19;1758070;81;21082;-91
2022/09/17 02:46:15;;;;;;;2.83;1.57;;;;;;;10.84;79.19;95598.09;1746277;81;20936;-91
2022/09/17 02:49:14;;;;;;;1.85;1.70;;;;;;;10.76;79.34;95591.32;1747729;81;21099;-91
2022/09/17 02:51:51;;;;;;;1.75;1.60;;;;;;;10.77;79.34;95590.32;1720625;82;20995;-92
2022/09/17 02:54:28;;;;;;;2.33;1.70;;;;;;;10.73;79.25;95590.91;1793719;80;20999;-92
2022/09/17 02:57:21;;;;;;;2.62;1.70;;;;;;;10.71;79.44;95582.02;1763259;81;21031;-91
2022/09/17 03:00:02;;;;;;;3.72;1.65;;;;;;;10.72;79.28;95580.21;1753530;80;20990;-91
2022/09/17 03:02:39;;;;;;;2.37;1.52;;;;;;;10.66;79.20;95568.04;1762671;81;20961;-91
2022/09/17 03:05:06;;;;;;;3.50;1.67;;;;;;;10.61;79.08;95565.26;1757471;81;21018;-91
2022/09/17 03:07:32;;;;;;;2.75;1.50;;;;;;;10.56;79.28;95560.64;1746317;80;20970;-92
2022/09/17 03:09:59;;;;;;;2.25;1.17;;;;;;;10.51;79.25;95556.06;1775840;80;21042;-91
2022/09/17 03:12:26;;;;;;;3.37;1.42;;;;;;;10.49;78.92;95555.97;1782147;80;21007;-91
2022/09/17 03:14:52;;;;;;;1.80;1.30;;;;;;;10.47;79.06;95552.77;1778710;80;21029;-91
2022/09/17 03:17:17;;;;;;;2.22;1.60;;;;;;;10.48;79.15;95555.17;1780566;80;20955;-91
2022/09/17 03:19:43;;;;;;;2.05;1.40;;;;;;;10.50;79.45;95548.47;1744376;81;20942;-92
2022/09/17 03:22:09;;;;;;;3.15;1.67;;;;;;;10.51;80.17;95553.96;1741706;81;21001;-90
2022/09/17 03:24:34;;;;;;;3.72;1.60;;;;;;;10.47;79.43;95551.48;1746744;81;20994;-91
2022/09/17 03:27:01;;;;;;;2.70;1.82;;;;;;;10.44;79.49;95551.38;1755077;81;20987;-90
2022/09/17 03:29:27;;;;;;;3.75;1.15;;;;;;;10.43;80.48;95542.50;1746510;81;20903;-91
2022/09/17 03:31:53;;;;;;;1.98;1.20;;;;;;;10.41;79.75;95542.70;1747626;81;20954;-91
2022/09/17 03:34:20;;;;;;;1.45;1.30;;;;;;;10.37;79.62;95540.68;1746482;81;20970;-91
2022/09/17 03:36:45;;;;;;;3.17;1.87;;;;;;;10.35;79.25;95538.79;1769728;80;20985;-91
2022/09/17 03:39:11;;;;;;;1.40;1.30;;;;;;;10.34;78.98;95531.50;1753278;81;21095;-90
2022/09/17 03:41:38;;;;;;;2.15;1.12;;;;;;;10.34;78.76;95528.91;1754522;81;21093;-90
2022/09/17 03:44:04;;;;;;;1.50;1.40;;;;;;;10.34;79.19;95524.21;1744835;82;21326;-91
2022/09/17 03:46:29;;;;;;;1.47;1.35;;;;;;;10.32;78.98;95514.53;1748502;82;20935;-91
2022/09/17 03:48:55;;;;;;;1.27;1.10;;;;;;;10.28;79.23;95512.04;1722247;83;21038;-91
2022/09/17 03:51:21;;;;;;;1.62;1.00;;;;;;;10.27;78.92;95514.34;1750228;81;21324;-91
2022/09/17 03:53:47;;;;;;;2.25;1.10;;;;;;;10.28;79.32;95518.53;1757955;81;21007;-91
2022/09/17 03:56:13;;;;;;;2.35;1.20;;;;;;;10.30;79.84;95516.53;1752102;81;21007;-91
2022/09/17 03:58:39;;;;;;;2.52;1.32;;;;;;;10.31;79.83;95510.34;1748074;82;21366;-91
2022/09/17 04:01:05;;;;;;;2.25;1.40;;;;;;;10.29;80.36;95513.64;1735283;83;20923;-91
2022/09/17 04:03:31;;;;;;;1.65;1.30;;;;;;;10.27;80.79;95509.15;1735332;83;20963;-91
2022/09/17 04:05:56;;;;;;;1.90;1.52;;;;;;;10.20;80.47;95511.20;1735488;83;20998;-91
2022/09/17 04:08:22;;;;;;;3.75;1.25;;;;;;;10.13;80.73;95500.03;1730184;83;20963;-91
2022/09/17 04:10:48;;;;;;;1.95;1.10;;;;;;;10.08;80.43;95503.70;1746367;81;20994;-91
2022/09/17 04:13:14;;;;;;;1.98;1.07;;;;;;;10.05;80.59;95506.70;1747984;81;20943;-91
2022/09/17 04:15:40;;;;;;;2.22;1.30;;;;;;;10.07;81.06;95507.30;1746169;81;21344;-90
2022/09/17 04:18:06;;;;;;;2.02;1.30;;;;;;;10.03;81.08;95504.01;1760782;81;20971;-91
2022/09/17 04:20:32;;;;;;;2.42;1.05;;;;;;;9.99;80.52;95515.30;1754048;81;20935;-89
2022/09/17 04:22:58;;;;;;;1.85;1.00;;;;;;;9.98;80.90;95513.70;1767345;81;20942;-91
2022/09/17 04:25:24;;;;;;;2.77;1.52;;;;;;;10.00;80.81;95513.00;1767196;81;21026;-91
2022/09/17 04:27:50;;;;;;;2.27;1.22;;;;;;;9.99;80.23;95515.30;1767234;81;21668;-91
2022/09/17 04:30:15;;;;;;;1.60;1.32;;;;;;;9.97;79.69;95521.19;1767244;81;21313;-90
2022/09/17 04:32:44;;;;;;;1.92;1.30;;;;;;;9.97;80.94;95525.08;1767287;81;20891;-90
2022/09/17 04:35:11;;;;;;;1.37;1.12;;;;;;;9.97;81.34;95532.06;1752188;81;21507;-91
2022/09/17 04:37:36;;;;;;;1.57;1.00;;;;;;;9.96;80.88;95522.19;1766765;81;20959;-91
2022/09/17 04:40:03;;;;;;;1.50;0.72;;;;;;;9.97;80.73;95518.59;1760543;81;20972;-91
2022/09/17 04:42:29;;;;;;;1.20;0.80;;;;;;;10.01;81.55;95515.89;1765934;81;21428;-91
2022/09/17 04:44:55;;;;;;;2.27;1.52;;;;;;;10.02;81.09;95518.78;1767285;81;20923;-91
2022/09/17 04:47:21;;;;;;;1.87;1.20;;;;;;;10.04;80.66;95508.20;1752577;81;21009;-91
2022/09/17 04:49:47;;;;;;;2.10;1.25;;;;;;;10.07;81.44;95505.20;1702709;82;21351;-91
2022/09/17 04:52:12;;;;;;;1.30;1.10;;;;;;;10.06;81.72;95499.22;1723101;83;20991;-90
2022/09/17 04:54:39;;;;;;;3.20;0.90;;;;;;;10.07;81.17;95500.80;1737703;83;21051;-91
2022/09/17 04:57:04;;;;;;;1.92;1.00;;;;;;;10.07;80.44;95496.91;1746429;81;21325;-91
2022/09/17 04:59:30;;;;;;;2.95;0.90;;;;;;;10.11;80.48;95502.03;1764260;81;20979;-91
2022/09/17 05:01:56;;;;;;;0.93;0.90;;;;;;;10.15;80.31;95503.72;1732299;81;21005;-91
2022/09/17 05:04:22;;;;;;;1.05;0.95;;;;;;;10.19;80.45;95512.20;1729484;81;20970;-91
2022/09/17 05:06:48;;;;;;;8.63;3.00;;;;;;;10.23;80.08;95510.02;1734006;81;20986;-91
2022/09/17 05:09:13;;;;;;;4.67;1.72;;;;;;;10.26;80.10;95516.64;1757399;81;21000;-91
2022/09/17 05:11:39;;;;;;;6.10;2.52;;;;;;;10.31;81.33;95516.33;1732706;81;21472;-91
2022/09/17 05:14:05;;;;;;;41.50;10.40;;;;;;;10.33;79.85;95521.31;1741810;81;21030;-91
2022/09/17 05:16:31;;;;;;;7.45;1.92;;;;;;;10.41;80.05;95527.12;1692173;84;20964;-86
2022/09/17 05:18:57;;;;;;;4.03;1.40;;;;;;;10.47;80.25;95534.59;1718514;81;21052;-87
2022/09/17 05:21:22;;;;;;;1.98;1.10;;;;;;;10.53;79.79;95527.28;1735541;82;21301;-86
2022/09/17 05:23:49;;;;;;;3.02;1.50;;;;;;;10.58;79.29;95515.81;1734514;81;20959;-86
2022/09/17 05:26:14;;;;;;;1.85;1.00;;;;;;;10.62;79.22;95513.09;1739948;81;20951;-87
2022/09/17 05:28:41;;;;;;;2.00;0.90;;;;;;;10.67;79.08;95515.88;1704052;82;21016;-86
2022/09/17 05:31:07;;;;;;;1.50;1.40;;;;;;;10.73;79.12;95509.86;1740905;81;21415;-86
2022/09/17 05:33:33;;;;;;;2.50;1.40;;;;;;;10.79;79.53;95502.56;1744934;81;21022;-87
2022/09/17 05:35:58;;;;;;;1.12;1.02;;;;;;;10.81;79.10;95518.74;1744099;81;20997;-86
2022/09/17 05:38:24;;;;;;;1.42;1.05;;;;;;;10.86;79.33;95523.83;1745068;81;21313;-86
2022/09/17 05:40:50;;;;;;;1.50;0.90;;;;;;;10.92;79.56;95521.73;1727133;81;21201;-87
2022/09/17 05:43:16;;;;;;;1.07;0.82;;;;;;;10.98;79.20;95528.70;1751803;80;20973;-87
2022/09/17 05:45:41;;;;;;;1.98;1.10;;;;;;;11.03;79.39;95532.27;1793249;80;21336;-87
2022/09/17 05:48:11;;;;;;;1.40;1.00;;;;;;;11.07;79.43;95526.19;1768339;81;21317;-87
2022/09/17 05:50:37;;;;;;;1.32;1.10;;;;;;;11.11;79.48;95522.16;1739504;81;21009;-87
2022/09/17 05:53:06;;;;;;;3.60;1.40;;;;;;;11.12;79.38;95527.66;1768178;81;20920;-87
2022/09/17 05:55:32;;;;;;;2.05;1.25;;;;;;;11.11;79.20;95531.27;1768245;81;21111;-87
2022/09/17 05:57:58;;;;;;;1.80;1.42;;;;;;;11.07;78.95;95532.18;1770773;80;21350;-86
2022/09/17 06:00:23;;;;;;;2.35;1.20;;;;;;;11.06;78.74;95533.66;1767732;80;20943;-87
2022/09/17 06:02:56;;;;;;;1.47;1.25;;;;;;;11.05;78.89;95533.36;1770028;80;20951;-87
2022/09/17 06:05:23;;;;;;;2.77;1.62;;;;;;;11.06;79.10;95529.28;1793174;80;21007;-87
2022/09/17 06:07:49;;;;;;;2.55;1.62;;;;;;;11.09;79.17;95522.37;1758237;81;21367;-87
2022/09/17 06:10:15;;;;;;;4.45;2.12;;;;;;;11.12;78.84;95523.75;1760996;81;21049;-87
2022/09/17 06:12:40;;;;;;;2.80;1.65;;;;;;;11.07;79.07;95508.78;1762462;81;21007;-86
2022/09/17 06:15:07;;;;;;;2.20;1.70;;;;;;;11.04;79.23;95510.47;1766167;81;20943;-86
2022/09/17 06:17:34;;;;;;;2.90;2.17;;;;;;;11.06;79.57;95507.66;1768278;81;21330;-87
2022/09/17 06:20:02;;;;;;;2.50;1.80;;;;;;;11.11;79.69;95510.46;1768121;81;21003;-86
2022/09/17 06:22:28;;;;;;;1.85;1.60;;;;;;;11.10;78.80;95508.87;1768198;81;21009;-86
2022/09/17 06:24:53;;;;;;;3.00;1.98;;;;;;;11.10;79.04;95512.27;1788642;80;20937;-86
2022/09/17 06:27:19;;;;;;;5.92;3.00;;;;;;;11.12;78.83;95519.35;1762545;80;21381;-86
2022/09/17 06:29:45;;;;;;;2.60;2.30;;;;;;;11.12;78.70;95525.85;1780138;80;20929;-86
2022/09/17 06:32:11;;;;;;;2.92;1.85;;;;;;;11.17;79.14;95520.53;1792660;80;20929;-87
2022/09/17 06:34:38;;;;;;;2.20;1.85;;;;;;;11.21;78.93;95509.50;1788529;80;21004;-87
2022/09/17 06:37:05;;;;;;;2.72;2.08;;;;;;;11.20;78.70;95519.61;1788230;80;21317;-86
2022/09/17 06:39:30;;;;;;;1.92;1.50;;;;;;;11.20;77.90;95524.81;1765115;81;21057;-86
2022/09/17 06:41:56;;;;;;;2.72;1.37;;;;;;;11.19;77.81;95524.52;1751941;81;20941;-86
2022/09/17 06:44:22;;;;;;;1.80;1.30;;;;;;;11.25;78.18;95524.22;1787316;79;21333;-86
2022/09/17 06:46:49;;;;;;;2.62;1.50;;;;;;;11.31;77.58;95514.28;1793558;80;20982;-86
2022/09/17 06:49:17;;;;;;;6.22;3.87;;;;;;;11.33;77.12;95507.06;1793912;79;21343;-87
2022/09/17 06:51:43;;;;;;;2.35;2.12;;;;;;;11.37;77.29;95514.23;1801919;79;20967;-86
2022/09/17 06:54:09;;;;;;;4.08;3.00;;;;;;;11.40;77.84;95513.84;1793835;79;20931;-86
2022/09/17 06:56:35;;;;;;;2.87;2.17;;;;;;;11.48;77.93;95509.39;1795123;80;21306;-86
2022/09/17 06:59:01;;;;;;;4.97;3.22;;;;;;;11.53;77.74;95506.45;1793371;80;20947;-87
2022/09/17 07:01:27;;;;;;;12.00;5.90;;;;;;;11.59;77.66;95513.44;1792301;79;20955;-86
2022/09/17 07:03:53;;;;;;;7.85;3.98;;;;;;;11.69;77.48;95518.17;1763841;81;20990;-86
2022/09/17 07:06:19;;;;;;;4.12;2.25;;;;;;;11.76;77.32;95516.34;1767834;81;20979;-87
2022/09/17 07:08:45;;;;;;;4.00;1.90;;;;;;;11.83;76.75;95519.72;1767146;81;21002;-87
2022/09/17 07:11:12;;;;;;;2.45;1.82;;;;;;;11.82;76.66;95520.73;1749216;81;20999;-87
2022/09/17 07:13:38;;;;;;;2.12;1.90;;;;;;;11.93;77.05;95524.48;1778528;79;21027;-86
2022/09/17 07:16:05;;;;;;;1.82;1.60;;;;;;;11.95;76.51;95528.46;1765600;81;21309;-87
2022/09/17 07:18:31;;;;;;;2.22;1.50;;;;;;;11.91;76.14;95544.72;1776505;81;21034;-86
2022/09/17 07:21:00;;;;;;;3.22;2.08;;;;;;;11.89;76.41;95550.13;1776264;81;21022;-87
2022/09/17 07:23:34;;;;;;;4.60;1.67;;;;;;;11.92;75.73;95560.13;1764009;81;21042;-87
2022/09/17 07:26:04;;;;;;;1.40;1.30;;;;;;;11.92;75.83;95571.84;1775758;81;21014;-87
2022/09/17 07:28:30;;;;;;;2.85;1.95;;;;;;;11.94;75.24;95569.02;1774313;81;20979;-86
2022/09/17 07:30:56;;;;;;;2.72;1.90;;;;;;;11.98;75.16;95564.98;1776137;81;21320;-87
2022/09/17 07:33:24;;;;;;;2.87;2.02;;;;;;;12.01;75.17;95563.26;1756819;81;20960;-86
2022/09/17 07:35:57;;;;;;;2.92;1.65;;;;;;;11.99;74.76;95574.39;1775222;81;21005;-87
2022/09/17 07:38:23;;;;;;;3.20;2.02;;;;;;;11.97;74.22;95572.50;1776580;81;21337;-86
2022/09/17 07:41:08;;;;;;;1.82;1.67;;;;;;;11.94;74.33;95572.42;1773505;81;20963;-87
2022/09/17 07:43:35;;;;;;;4.60;1.90;;;;;;;11.93;74.41;95572.13;1765682;81;21139;-86
2022/09/17 07:46:03;;;;;;;2.33;1.40;;;;;;;11.95;74.54;95570.11;1771146;81;21129;-86
2022/09/17 07:48:29;;;;;;;1.62;1.32;;;;;;;12.01;75.14;95571.86;1765500;81;21444;-86
2022/09/17 07:50:55;;;;;;;2.35;1.65;;;;;;;12.06;74.57;95569.16;1776336;81;20958;-86
2022/09/17 07:53:21;;;;;;;2.77;1.65;;;;;;;12.09;73.59;95572.64;1772498;81;21046;-86
2022/09/17 07:55:53;;;;;;;2.30;1.70;;;;;;;12.09;73.75;95586.45;1758717;81;20911;-87
2022/09/17 07:58:25;;;;;;;2.70;1.70;;;;;;;12.12;73.69;95586.03;1754402;81;20971;-87
2022/09/17 08:00:51;;;;;;;3.30;1.50;;;;;;;12.16;73.86;95571.57;1778790;80;20994;-87
2022/09/17 08:03:17;;;;;;;2.50;1.77;;;;;;;12.20;73.95;95558.45;1798885;80;20932;-87
2022/09/17 08:05:42;;;;;;;2.37;1.57;;;;;;;12.22;73.04;95555.63;1773925;80;20931;-87
2022/09/17 08:08:08;;;;;;;2.92;1.92;;;;;;;12.22;74.42;95556.93;1767388;81;20920;-85
2022/09/17 08:10:34;;;;;;;3.62;1.47;;;;;;;12.26;73.81;95556.79;1767432;81;21040;-86
2022/09/17 08:13:00;;;;;;;3.30;1.80;;;;;;;12.32;74.21;95562.44;1767830;81;21046;-86
2022/09/17 08:15:27;;;;;;;2.12;1.55;;;;;;;12.41;74.75;95569.00;1781310;79;20943;-87
2022/09/17 08:17:52;;;;;;;3.95;2.17;;;;;;;12.48;73.97;95571.54;1777449;80;20970;-87
2022/09/17 08:20:18;;;;;;;2.98;2.05;;;;;;;12.51;73.37;95569.80;1797840;80;20935;-87
2022/09/17 08:22:44;;;;;;;3.08;1.90;;;;;;;12.54;74.10;95575.41;1795469;80;21025;-86
2022/09/17 08:25:10;;;;;;;2.47;2.12;;;;;;;12.55;73.20;95563.18;1767364;81;21059;-87
2022/09/17 08:27:39;;;;;;;2.30;1.87;;;;;;;12.56;73.55;95561.66;1745912;81;21022;-87
2022/09/17 08:30:06;;;;;;;3.08;2.00;;;;;;;12.59;73.13;95568.25;1765292;81;21002;-85
2022/09/17 08:32:32;;;;;;;4.05;2.20;;;;;;;12.63;73.73;95578.03;1757754;81;21003;-87
2022/09/17 08:34:58;;;;;;;5.22;2.47;;;;;;;12.68;73.08;95581.28;1763116;81;21047;-87
2022/09/17 08:37:28;;;;;;;3.42;2.10;;;;;;;12.71;73.15;95576.97;1765669;81;21010;-87
2022/09/17 08:39:54;;;;;;;2.70;2.05;;;;;;;12.73;72.44;95578.06;1765445;81;20991;-87
2022/09/17 08:42:45;;;;;;;4.55;2.58;;;;;;;12.77;73.39;95587.03;1765242;81;21393;-86
2022/09/17 08:45:25;;;;;;;2.60;1.98;;;;;;;12.80;72.56;95574.88;1744381;81;21024;-86
2022/09/17 08:47:51;;;;;;;4.50;2.17;;;;;;;12.78;71.52;95571.18;1746679;82;20976;-86
2022/09/17 08:50:28;;;;;;;3.83;2.40;;;;;;;12.76;72.37;95560.68;1727518;82;20976;-86
2022/09/17 08:53:33;;;;;;;3.58;2.83;;;;;;;12.77;72.50;95568.28;1764928;81;20985;-85
2022/09/17 08:56:05;;;;;;;2.90;1.90;;;;;;;12.76;72.44;95561.48;1753527;80;20963;-85
2022/09/17 08:58:50;;;;;;;2.95;1.98;;;;;;;12.72;72.14;95547.29;1747341;82;20980;-86
2022/09/17 09:01:50;;;;;;;2.50;2.30;;;;;;;12.74;72.95;95540.05;1734702;82;21059;-86
2022/09/17 09:04:45;;;;;;;2.92;2.10;;;;;;;12.83;72.25;95541.84;1739179;82;21017;-86
2022/09/17 09:07:17;;;;;;;2.83;2.25;;;;;;;12.86;73.11;95544.84;1739705;82;21016;-86
2022/09/17 09:09:48;;;;;;;4.20;1.87;;;;;;;12.93;72.97;95529.92;1749691;82;20974;-86
2022/09/17 09:12:22;;;;;;;2.50;1.90;;;;;;;13.03;72.15;95549.49;1769377;80;20983;-87
2022/09/17 09:15:03;;;;;;;3.10;1.82;;;;;;;13.06;72.38;95549.85;1766759;81;20996;-87
2022/09/17 09:17:37;;;;;;;3.02;2.25;;;;;;;13.14;72.77;95566.50;1768993;81;20923;-87
2022/09/17 09:20:04;;;;;;;3.47;2.47;;;;;;;13.13;72.03;95574.04;1769549;80;21389;-86
2022/09/17 09:22:51;;;;;;;2.90;1.80;;;;;;;13.11;72.14;95582.59;1769561;80;20975;-86
2022/09/17 09:25:26;;;;;;;3.12;1.72;;;;;;;13.10;71.67;95577.08;1769385;80;21007;-86
2022/09/17 09:28:03;;;;;;;4.35;2.30;;;;;;;13.14;71.79;95576.14;1789723;80;21388;-86
2022/09/17 09:30:48;;;;;;;3.37;1.62;;;;;;;13.19;71.63;95578.44;1756333;81;21043;-86
2022/09/17 09:33:17;;;;;;;2.12;1.85;;;;;;;13.28;72.42;95576.32;1739401;82;20999;-86
2022/09/17 09:35:43;;;;;;;3.90;2.25;;;;;;;13.36;71.16;95585.17;1769531;80;21957;-86
2022/09/17 09:38:14;;;;;;;3.55;2.00;;;;;;;13.39;70.93;95582.13;1769466;80;20944;-86
2022/09/17 09:40:57;;;;;;;3.05;1.90;;;;;;;13.37;70.37;95583.36;1740364;81;21378;-86
2022/09/17 09:43:45;;;;;;;3.50;1.80;;;;;;;13.38;71.04;95584.45;1741404;80;21089;-87
2022/09/17 09:46:41;;;;;;;2.55;1.90;;;;;;;13.44;71.08;95591.39;1773880;81;20959;-86
2022/09/17 09:49:29;;;;;;;2.40;1.85;;;;;;;13.57;71.25;95590.44;1776435;81;20990;-86
2022/09/17 09:52:28;;;;;;;2.90;1.75;;;;;;;13.65;70.42;95599.27;1773391;81;21425;-85
2022/09/17 09:55:05;;;;;;;2.87;1.80;;;;;;;13.68;69.89;95594.14;1772008;81;21035;-86
2022/09/17 09:57:46;;;;;;;2.17;1.50;;;;;;;13.74;69.82;95588.83;1766045;81;21086;-86
2022/09/17 10:00:29;;;;;;;2.90;2.20;;;;;;;13.83;70.56;95581.49;1774289;81;21326;-86
2022/09/17 10:03:05;;;;;;;2.65;2.00;;;;;;;13.93;70.01;95577.83;1768219;80;21011;-86
2022/09/17 10:05:31;;;;;;;2.87;1.70;;;;;;;14.00;69.34;95580.36;1770929;81;20948;-86
2022/09/17 10:07:57;;;;;;;3.55;1.90;;;;;;;14.04;69.52;95574.47;1773227;81;21018;-86
2022/09/17 10:10:23;;;;;;;4.30;1.72;;;;;;;14.16;68.60;95569.28;1793379;80;20955;-86
2022/09/17 10:12:50;;;;;;;2.27;1.87;;;;;;;14.19;67.60;95569.34;1795781;80;20936;-86
2022/09/17 10:15:26;;;;;;;3.10;1.65;;;;;;;14.26;68.24;95572.13;1734601;82;21099;-86
2022/09/17 10:18:14;;;;;;;2.22;1.60;;;;;;;14.33;68.81;95579.88;1784637;80;21011;-86
2022/09/17 10:20:55;;;;;;;3.60;1.77;;;;;;;14.41;68.58;95584.26;1752186;80;20931;-86
2022/09/17 10:23:22;;;;;;;1.85;1.60;;;;;;;14.52;68.53;95589.27;1777533;80;20985;-85
2022/09/17 10:25:48;;;;;;;3.05;1.80;;;;;;;14.57;68.21;95587.27;1785816;80;21397;-86
2022/09/17 10:28:46;;;;;;;2.62;1.55;;;;;;;14.53;65.20;95588.75;1789013;80;21064;-86
2022/09/17 10:31:13;;;;;;;3.00;1.40;;;;;;;14.36;65.69;95589.38;1731752;82;21023;-87
2022/09/17 10:33:57;;;;;;;2.77;2.00;;;;;;;14.34;66.16;95584.09;1744883;81;21018;-86
2022/09/17 10:36:41;;;;;;;2.83;2.10;;;;;;;14.33;65.63;95583.30;1768640;80;20953;-85
2022/09/17 10:39:43;;;;;;;1.75;1.55;;;;;;;14.35;66.36;95581.25;1773747;80;20919;-85
2022/09/17 10:42:17;;;;;;;2.00;1.80;;;;;;;14.32;66.55;95586.13;1774610;80;21046;-87
2022/09/17 10:44:54;;;;;;;2.37;1.72;;;;;;;14.38;66.68;95595.17;1798932;79;21058;-87
2022/09/17 10:47:30;;;;;;;3.00;2.00;;;;;;;14.42;66.26;95602.05;1799382;80;20947;-87
2022/09/17 10:50:06;;;;;;;2.70;1.57;;;;;;;14.45;66.64;95599.52;1767543;81;21051;-87
2022/09/17 10:52:36;;;;;;;2.65;1.55;;;;;;;14.50;65.83;95601.77;1761311;81;20994;-87
2022/09/17 10:55:23;;;;;;;3.08;1.65;;;;;;;14.56;67.17;95603.47;1766045;81;21004;-88
2022/09/17 10:58:06;;;;;;;6.08;2.08;;;;;;;14.60;66.40;95599.38;1767401;81;21022;-87
2022/09/17 11:01:22;;;;;;;2.55;1.80;;;;;;;14.54;64.18;95595.05;1774927;80;20971;-86
2022/09/17 11:04:08;;;;;;;3.33;1.50;;;;;;;14.50;66.16;95597.05;1786138;80;21010;-87
2022/09/17 11:07:05;;;;;;;2.22;1.85;;;;;;;14.51;65.20;95588.98;1767143;81;21019;-87
2022/09/17 11:09:59;;;;;;;4.75;1.95;;;;;;;14.45;65.90;95594.29;1747429;81;21030;-86
2022/09/17 11:12:57;;;;;;;3.58;1.57;;;;;;;14.42;65.90;95602.84;1760701;81;20987;-86
2022/09/17 11:15:41;;;;;;;2.58;1.40;;;;;;;14.43;66.93;95597.09;1794043;80;21433;-85
2022/09/17 11:18:24;;;;;;;2.47;2.05;;;;;;;14.47;66.71;95602.70;1746978;81;20999;-87
2022/09/17 11:21:12;;;;;;;3.40;1.77;;;;;;;14.44;65.48;95601.34;1767773;81;21043;-87
2022/09/17 11:24:04;;;;;;;2.17;1.98;;;;;;;14.39;66.96;95613.75;1774512;80;21015;-87
2022/09/17 11:26:40;;;;;;;3.22;1.55;;;;;;;14.33;66.44;95611.24;1794489;80;21089;-87
2022/09/17 11:29:26;;;;;;;2.00;1.70;;;;;;;14.24;66.73;95605.53;1773981;80;21377;-86
2022/09/17 11:32:13;;;;;;;2.00;1.50;;;;;;;14.12;67.12;95603.37;1786307;80;21047;-86
2022/09/17 11:34:49;;;;;;;2.02;1.50;;;;;;;14.03;67.32;95597.69;1795667;80;21066;-86
2022/09/17 11:37:25;;;;;;;2.67;1.90;;;;;;;13.95;66.99;95589.35;1792802;80;20944;-86
2022/09/17 11:39:58;;;;;;;2.95;1.52;;;;;;;13.88;67.68;95595.19;1773482;80;20919;-86
2022/09/17 11:42:38;;;;;;;2.55;1.80;;;;;;;13.74;66.98;95598.47;1797843;80;20945;-86
2022/09/17 11:45:17;;;;;;;2.22;1.67;;;;;;;13.56;67.31;95591.46;1760870;81;21009;-86
2022/09/17 11:47:54;;;;;;;3.27;1.80;;;;;;;13.39;67.65;95587.34;1761685;81;21022;-86
2022/09/17 11:50:33;;;;;;;2.95;1.52;;;;;;;13.31;68.54;95592.84;1782299;79;21522;-86
2022/09/17 11:53:29;;;;;;;2.33;1.92;;;;;;;13.29;68.96;95601.90;1765998;81;21014;-86
2022/09/17 11:56:17;;;;;;;2.45;1.90;;;;;;;13.23;69.24;95597.56;1754202;80;21039;-86
2022/09/17 11:58:54;;;;;;;5.08;2.25;;;;;;;13.17;69.81;95589.53;1776271;81;21424;-86